Arcadia, Utah
Current Conditions -  °F | °C
As of 12:53 PM on Sunday 23 Nov 2014 (Local Time) from KPUC Reporting Station
Clear Clear  
Wind Chill: 22°   Ceiling: Unl
Heat Index: 34°   Visibility: 10mi
Dew Point: 16°   Wind: 21mph
Humidity: 48%   Direction: 320°NW
Pressure: 30.08"   Gusts: 32mph
Location:  39.9707°N, 110.477°W
Report Text: KPUC 231953Z AUTO 32018G28KT 10SM CLR 01/M09 A3008 RMK AO2 PK WND 30035/1909 SLP215 T00111089
Loading
Personal Weather Stations






























Interactive Weather Map New forecast layout! Learn more

10-Day Weather Forecast

Advertisements
Track Severe Weather on mobile